Página principal
METAR-TAF:

METAR-TAF

Aeroportos :

Carachi, Paquistão

Aeroporto Internacional Jinnah

latitude: 24-54N, longitude: 067-08E, altura: 21 m

Observação actual do tempo

O boletim foi feito há 19 minutos, às 06:55 UTC
Vento 15 kt de sudoeste
Temperatura 32°C
Humidade 52%
Pressão 1009 hPa
Visibilidade: 6000 m
Nuvens dispersasa uma altura de 2000 ft

METAR: OPKC 270655Z 22015KT 6000 SCT020 32/21 Q1009 NOSIG

Hora: 12:14 (07:14 UTC)

Previsão

O boletim foi feito há 3 horas e 44 minutos, às 03:30 UTC
Previsão válida de 27 às 06 UTC a 28 às 12 UTC
Vento 10 kt de sudoeste com rajadas de 20 kt
Visibilidade: 6000 m
Poucas nuvensa uma altura de 2000 ft
A partir de UTC
Vento 10 kt de oeste
Visibilidade: 5000 m
Poucas nuvensa uma altura de 2000 ft
bruma
A partir de 28 às 0600 UTC
Vento 10 kt de oes-sudoeste com rajadas de 20 kt
Visibilidade: 6000 m

TAF: OPKC 270330Z 2706/2812 23010G20KT 6000 FEW020 FM 272100 28010KT 5000 HZ FEW020 FM280600 24010G20KT 6000 NSC

Observações e previsões do tempo de mais de 4000 aeroportos (mensagens METAR e TAF).

As estações disponíveis são os pontos amarelos e vermelhos sobre o mapa.

Mova o rato sobre o mapa para ver o nome da estação.

Depois clique no ponto para visualizar as observações e previsões meteorológicas.

Para alterar o mapa : clique nos botões verdes com uma cruz preta para aumentar o zoom; no botão verde com uma pitada de zoom; ou nas setas verdes para mapas adjacentes.


METAR-TAF: